Aviation Digital Data Service (ADDS)

Output produced by METARs form (1108 UTC 19 February 2019)
found at http://www.aviationweather.gov/metar/data/
 
Forecast for: HECA (CAIRO INTL AIRPO, EG)
Text: TAF HECA 191100Z 1912/2018 35008KT 9999 SCT025
Forecast period: 1200 UTC 19 February 2019 to 1800 UTC 20 February 2019
Forecast type: FROM: standard forecast or significant change
Winds: from the N (350 degrees) at 9 MPH (8 knots; 4.1 m/s)
Visibility: 6 or more miles 10+ km)
Ceiling: at least 12,000 feet AGL
Clouds: scattered clouds at 2500 feet AGL
Weather: no significant weather forecast for this period
Text: TEMPO 2000/2008 4000 HZ NSC
Forecast period: 0000 to 0800 UTC 20 February 2019
Forecast type: TEMPORARY: The following changes expected for less than half the time period
Visibility: 2.49 miles (4.01 km)
Ceiling: unknown
Clouds: missing
Weather: HZ  (haze)